x

West Santa Barbara 38 Nm West Of Santa Barbara, Ca (46054) Wave Buoy

5:50am - Thu 30th Jun 2016 All times are PDT. -7 hours from GMT.

  • Sig Wave height 8.2ft
  • Swell Direction
  • Peak Period 9s
  • Average Period 6s
  • Wind
    27mph, 31mph gusts
  • Sea Temp 56°f
  • Air Temp 53°f
  • Sea Pressure 1011.3mb
  • West Santa Barbara  38 Nm West Of Santa Barbara, Ca
  • West Santa Barbara  38 Nm West Of Santa Barbara, Ca

More Historic Weather Station data

Upgrade to MSW Pro to gain access to the past 30 days of data for over 8000 Wavebouys and Weather Stations around the globe.

Join Pro

Comparision Forecast

View Surf forecast
   
Thu 06/30 5:50am 8ft 9s 6s 27 31 mph 1011.3mb 56f 53f
4:50am 10ft 9s 7s 29 34 mph 1010.9mb 56f 53f
3:50am 8ft 9s 6s 29 38 mph 1011mb 56f 53f
2:50am 9ft 8s 6s 29 36 mph 1010.7mb 56f 53f
1:50am 10ft 9s 6s 31 38 mph 1010.5mb 56f 53f
12:50am 10.5ft 10s 7s 34 40 mph 1010.5mb 56f 53f
Wed 06/29 11:50pm 10ft 10s 6s 34 40 mph 1010.7mb 56f 53f
10:50pm 10ft 8s 6s 31 40 mph 1011.2mb 55f 54f
9:50pm 10.5ft 8s 6s 31 38 mph 1010.9mb 55f 54f
8:50pm 10.5ft 9s 6s 36 43 mph 1010.4mb 54f 54f
7:50pm 10ft 8s 6s 36 43 mph 1010.1mb 55f 54f
6:50pm 10.5ft 8s 6s 34 40 mph 1010.2mb 55f 55f
5:50pm 10ft 8s 6s 34 43 mph 1010.3mb 55f 55f
4:50pm 9.5ft 7s 6s 31 38 mph 1010.9mb 55f 55f
3:50pm 9ft 10s 6s 29 36 mph 1011.5mb 56f 55f
2:50pm 10ft 10s 7s 27 31 mph 1012.4mb 56f 55f
1:50pm 10ft 9s 7s 25 29 mph 1012.9mb 56f 55f
12:50pm 8ft 8s 7s 22 27 mph 1013.3mb 56f 55f
11:50am 8ft 9s 7s 22 25 mph 1013.7mb 56f 55f
10:50am 7ft 9s 7s 18 22 mph 1013.9mb 57f 55f
9:50am 7ft 8s 7s 18 20 mph 1013.8mb 56f 55f
8:50am 7ft 9s 7s 16 18 mph 1013.7mb 56f 55f
7:50am 7.5ft 9s 7s 18 20 mph 1013.3mb 56f 55f
6:50am 7.5ft 10s 7s 16 20 mph 1012.8mb 56f 55f
5:50am 8ft 10s 7s 18 20 mph 1012.3mb 56f 55f
4:50am 8ft 10s 7s 18 20 mph 1012.2mb 56f 54f
3:50am 8.5ft 9s 7s 16 22 mph 1011.9mb 56f 55f
2:50am 9ft 10s 7s 22 27 mph 1011.8mb 56f 54f
1:50am 8.5ft 8s 6s 25 27 mph 1011.5mb 56f 54f
12:50am 9ft 9s 6s 27 31 mph 1011.6mb 56f 55f
Tue 06/28 11:50pm 8ft 9s 6s 25 29 mph 1012mb 56f 55f
10:50pm 8ft 8s 6s 22 29 mph 1012.1mb 56f 56f
9:50pm 8.5ft 8s 7s 22 27 mph 1012.2mb 57f 56f
8:50pm 8ft 8s 7s 22 27 mph 1011.9mb 57f 57f
7:50pm 7ft 9s 7s 20 25 mph 1012.1mb 58f 57f
6:50pm 7ft 9s 7s 18 22 mph 1012mb 58f 58f
5:50pm 6.5ft 9s 7s 16 18 mph 1012.5mb 58f 58f
4:50pm 7ft 9s 8s 13 16 mph 1013.3mb 58f 58f
3:50pm 7.5ft 8s 8s 9 11 mph 1014.2mb 58f 58f
2:50pm 7.5ft 9s 7s 9 11 mph 1015mb 58f 58f
1:50pm 8ft 9s 7s 11
mph
1015.4mb 58f 58f
12:50pm 8.5ft 8s 7s 7 9 mph 1015.3mb 59f 59f
11:50am 7ft 9s 7s 9
mph
1015.1mb 57f 58f
10:50am 7ft 9s 7s 7 9 mph 1014.8mb 57f 58f
9:50am 6.5ft 9s 7s 2 4 mph 1014.8mb 57f 59f
8:50am 7ft 9s 8s 2 4 mph 1014.8mb 57f 58f
7:50am 7ft 9s 8s 4 7 mph 1014mb 57f 58f
6:50am 7ft 8s 8s 9 11 mph 1013.5mb 57f 58f
5:50am 8.5ft 9s 8s 13 16 mph 1013.2mb 57f 58f
4:50am 8ft 9s 8s 2 7 mph 1012.9mb 57f 57f
3:50am 9ft 9s 8s 4 9 mph 1012.4mb 58f 57f
2:50am 9ft 9s 8s 4 9 mph 1012.2mb 61f 57f
1:50am 8.5ft 9s 7s 7 9 mph 1012.2mb 59f 57f
12:50am 9ft 8s 7s 2 7 mph 1012.1mb 59f 60f
Mon 06/27 11:50pm 8.5ft 8s 7s 9 11 mph 1012.2mb 59f 59f
10:50pm 8.5ft 9s 7s 11 16 mph 1012.3mb 58f 59f
9:50pm 8ft 9s 7s 11 16 mph 1012.2mb 59f 59f
8:50pm 7.5ft 8s 7s 13 18 mph 1012.2mb 58f 59f
6:50pm 6ft 9s 7s 13 16 mph 1012.4mb 57f 59f
5:50pm 6.5ft 9s 7s 13 16 mph 1012.5mb 58f 59f
4:50pm 7ft 8s 7s 9 11 mph 1012.9mb 57f 58f
3:50pm 7.5ft 8s 7s 9 11 mph 1013.3mb 57f 58f
2:50pm 9.5ft 9s 8s 7 9 mph 1013.7mb 57f 58f
1:50pm 9ft 8s 7s 4 7 mph 1013.9mb 57f 58f
12:50pm 9ft 8s 7s 4
mph
1013.9mb 56f 58f
11:50am 7ft 8s 7s 4 7 mph 1014mb 56f 56f
10:50am 7ft 8s 7s 2 4 mph 1013.9mb 56f 56f
9:50am 7.5ft 9s 7s 7 9 mph 1013.7mb 55f 56f
8:50am 8ft 8s 8s 7
mph
1013.7mb 56f 56f
7:50am 8ft 9s 8s 4 7 mph 1013.6mb 55f 55f
6:50am 7.5ft 9s 8s 4 7 mph 1013.1mb 56f 55f
5:50am 7ft 9s 8s 4 7 mph 1012.7mb 56f 57f
4:50am 7.5ft 8s 8s 4 7 mph 1012.4mb 56f 58f
3:50am 8ft 9s 8s 2 7 mph 1012.7mb 55f 56f
2:50am 9ft 8s 7s 7 11 mph 1012.2mb 55f 56f
1:50am 8ft 8s 7s 4 7 mph 1012mb 56f 56f
12:50am 9ft 8s 7s 9 11 mph 1012mb 56f 58f
Sun 06/26 11:50pm 7.5ft 8s 7s 7 9 mph 1011.8mb 55f 58f
10:50pm 8ft 8s 7s 13 16 mph 1011.9mb 55f 57f
9:50pm 9ft 9s 7s 22 27 mph 1011.1mb 55f 57f
8:50pm 9ft 8s 7s 22 27 mph 1010.7mb 55f 56f
7:50pm 8.5ft 8s 6s 25 29 mph 1010.5mb 56f 56f
6:50pm 8.5ft 9s 7s 22 27 mph 1010.7mb 57f 56f
5:50pm 7.5ft 8s 6s 22 27 mph 1010.6mb 58f 57f
4:50pm 7ft 8s 7s 20 27 mph 1011.3mb 58f 57f
3:50pm 7ft 8s 7s 18 22 mph 1012.1mb 59f 57f
2:50pm 8.5ft 8s 7s 16 18 mph 1012.5mb 59f 57f
1:50pm 7ft 9s 7s 9 11 mph 1012.9mb 59f 56f